Weather at Kanpur Airport

Public forecast

Using degrees Celsius for public forecast. Weather courtesy of forecast.io.

Closest aviation weather report (METAR) to Kanpur Airport

Closest report is Chaudhary Charan Singh International Airport, 33.5 nm (62.0 km) NE. Retrieved 2020/10/24 14:30 UTC (0 seconds ago):

VILK 241430Z 00000KT 3000 HZ NSC 24/18 Q1008 NOSIG

Aviation forecast (TAF) for Kanpur Airport

Forecast is more than 12 hours old.

Retrieved 2020/02/24 06:30 UTC (8 months ago):

TAF VICX 240330Z 2406/2418 07005KT 5000 HZ SCT100 SCT250 BECMG 2409/2412 6000 SCT100 SCT250TAF VEKU 240330Z 2406/2418 10003KT 6000 FEW025 SCT100 BKN250